sensor_id;sensor_type;location;lat;lon;timestamp;temperature;humidity
37002;DHT22;22913;51.910;8.374;2023-05-10T00:02:45;15.80;99.90
37002;DHT22;22913;51.910;8.374;2023-05-10T00:05:31;15.80;99.90
37002;DHT22;22913;51.910;8.374;2023-05-10T00:08:17;15.80;99.90
37002;DHT22;22913;51.910;8.374;2023-05-10T00:11:03;15.80;99.90
37002;DHT22;22913;51.910;8.374;2023-05-10T00:13:48;15.80;99.90
37002;DHT22;22913;51.910;8.374;2023-05-10T00:16:34;15.80;99.90
37002;DHT22;22913;51.910;8.374;2023-05-10T00:19:21;15.80;99.90
37002;DHT22;22913;51.910;8.374;2023-05-10T00:22:06;15.80;99.90
37002;DHT22;22913;51.910;8.374;2023-05-10T00:24:52;15.70;99.90
37002;DHT22;22913;51.910;8.374;2023-05-10T00:27:38;15.80;99.90
37002;DHT22;22913;51.910;8.374;2023-05-10T00:30:24;15.80;99.90
37002;DHT22;22913;51.910;8.374;2023-05-10T00:33:09;15.80;99.90
37002;DHT22;22913;51.910;8.374;2023-05-10T00:35:57;15.70;99.90
37002;DHT22;22913;51.910;8.374;2023-05-10T00:38:42;15.70;99.90
37002;DHT22;22913;51.910;8.374;2023-05-10T00:41:28;15.70;99.90
37002;DHT22;22913;51.910;8.374;2023-05-10T00:44:13;15.70;99.90
37002;DHT22;22913;51.910;8.374;2023-05-10T00:46:59;15.70;99.90
37002;DHT22;22913;51.910;8.374;2023-05-10T00:49:45;15.70;99.90
37002;DHT22;22913;51.910;8.374;2023-05-10T00:52:32;15.60;99.90
37002;DHT22;22913;51.910;8.374;2023-05-10T00:55:19;15.60;99.90
37002;DHT22;22913;51.910;8.374;2023-05-10T00:58:05;15.60;99.90
37002;DHT22;22913;51.910;8.374;2023-05-10T01:00:51;15.60;99.90
37002;DHT22;22913;51.910;8.374;2023-05-10T01:03:37;15.60;99.90
37002;DHT22;22913;51.910;8.374;2023-05-10T01:06:24;15.60;99.90
37002;DHT22;22913;51.910;8.374;2023-05-10T01:09:11;15.60;99.90
37002;DHT22;22913;51.910;8.374;2023-05-10T01:11:57;15.60;99.90
37002;DHT22;22913;51.910;8.374;2023-05-10T01:14:43;15.60;99.90
37002;DHT22;22913;51.910;8.374;2023-05-10T01:17:29;15.60;99.90
37002;DHT22;22913;51.910;8.374;2023-05-10T01:20:15;15.60;99.90
37002;DHT22;22913;51.910;8.374;2023-05-10T01:23:28;15.60;99.90
37002;DHT22;22913;51.910;8.374;2023-05-10T01:26:46;15.60;99.90
37002;DHT22;22913;51.910;8.374;2023-05-10T01:30:00;15.60;99.90
37002;DHT22;22913;51.910;8.374;2023-05-10T01:32:53;15.50;99.90
37002;DHT22;22913;51.910;8.374;2023-05-10T01:35:47;15.50;99.90
37002;DHT22;22913;51.910;8.374;2023-05-10T01:38:41;15.40;99.90
37002;DHT22;22913;51.910;8.374;2023-05-10T01:41:33;15.30;99.90
37002;DHT22;22913;51.910;8.374;2023-05-10T01:44:27;15.30;99.90
37002;DHT22;22913;51.910;8.374;2023-05-10T01:47:17;15.20;99.90
37002;DHT22;22913;51.910;8.374;2023-05-10T01:50:10;15.10;99.90
37002;DHT22;22913;51.910;8.374;2023-05-10T01:52:58;15.00;99.90
37002;DHT22;22913;51.910;8.374;2023-05-10T01:55:47;15.00;99.90
37002;DHT22;22913;51.910;8.374;2023-05-10T01:58:34;14.90;99.90
37002;DHT22;22913;51.910;8.374;2023-05-10T02:01:22;14.80;99.90
37002;DHT22;22913;51.910;8.374;2023-05-10T02:04:08;14.80;99.90
37002;DHT22;22913;51.910;8.374;2023-05-10T02:06:56;14.80;99.90
37002;DHT22;22913;51.910;8.374;2023-05-10T02:09:44;14.60;99.90
37002;DHT22;22913;51.910;8.374;2023-05-10T02:12:32;14.70;99.90
37002;DHT22;22913;51.910;8.374;2023-05-10T02:15:23;14.70;99.90
37002;DHT22;22913;51.910;8.374;2023-05-10T02:18:09;14.70;99.90
37002;DHT22;22913;51.910;8.374;2023-05-10T02:20:56;14.70;99.90
37002;DHT22;22913;51.910;8.374;2023-05-10T02:23:45;14.70;99.90
37002;DHT22;22913;51.910;8.374;2023-05-10T02:26:32;14.60;99.90
37002;DHT22;22913;51.910;8.374;2023-05-10T02:29:19;14.60;99.90
37002;DHT22;22913;51.910;8.374;2023-05-10T02:32:09;14.70;99.90
37002;DHT22;22913;51.910;8.374;2023-05-10T02:34:56;14.60;99.90
37002;DHT22;22913;51.910;8.374;2023-05-10T02:37:43;14.60;99.90
37002;DHT22;22913;51.910;8.374;2023-05-10T02:40:32;14.60;99.90
37002;DHT22;22913;51.910;8.374;2023-05-10T02:43:19;14.60;99.90
37002;DHT22;22913;51.910;8.374;2023-05-10T02:46:07;14.60;99.90
37002;DHT22;22913;51.910;8.374;2023-05-10T02:48:53;14.60;99.90
37002;DHT22;22913;51.910;8.374;2023-05-10T02:51:42;14.70;99.90
37002;DHT22;22913;51.910;8.374;2023-05-10T02:54:33;14.60;99.90
37002;DHT22;22913;51.910;8.374;2023-05-10T02:57:24;14.60;99.90
37002;DHT22;22913;51.910;8.374;2023-05-10T03:00:12;14.50;99.90
37002;DHT22;22913;51.910;8.374;2023-05-10T03:02:57;14.50;99.90
37002;DHT22;22913;51.910;8.374;2023-05-10T03:05:43;14.50;99.90
37002;DHT22;22913;51.910;8.374;2023-05-10T03:08:29;14.40;99.90
37002;DHT22;22913;51.910;8.374;2023-05-10T03:11:31;14.40;99.90
37002;DHT22;22913;51.910;8.374;2023-05-10T03:14:26;14.50;99.90
37002;DHT22;22913;51.910;8.374;2023-05-10T03:17:23;14.50;99.90
37002;DHT22;22913;51.910;8.374;2023-05-10T03:20:11;14.40;99.90
37002;DHT22;22913;51.910;8.374;2023-05-10T03:23:04;14.40;99.90
37002;DHT22;22913;51.910;8.374;2023-05-10T03:25:50;14.30;99.90
37002;DHT22;22913;51.910;8.374;2023-05-10T03:28:36;14.40;99.90
37002;DHT22;22913;51.910;8.374;2023-05-10T03:31:24;14.30;99.90
37002;DHT22;22913;51.910;8.374;2023-05-10T03:34:09;14.20;99.90
37002;DHT22;22913;51.910;8.374;2023-05-10T03:36:55;14.20;99.90
37002;DHT22;22913;51.910;8.374;2023-05-10T03:39:40;14.10;99.90
37002;DHT22;22913;51.910;8.374;2023-05-10T03:42:26;14.00;99.90
37002;DHT22;22913;51.910;8.374;2023-05-10T03:45:12;14.00;99.90
37002;DHT22;22913;51.910;8.374;2023-05-10T03:47:59;13.90;99.90
37002;DHT22;22913;51.910;8.374;2023-05-10T03:50:44;13.90;99.90
37002;DHT22;22913;51.910;8.374;2023-05-10T03:53:30;13.90;99.90
37002;DHT22;22913;51.910;8.374;2023-05-10T03:56:16;13.70;99.90
37002;DHT22;22913;51.910;8.374;2023-05-10T03:59:01;13.70;99.90
37002;DHT22;22913;51.910;8.374;2023-05-10T04:01:51;13.70;99.90
37002;DHT22;22913;51.910;8.374;2023-05-10T04:04:38;13.60;99.90
37002;DHT22;22913;51.910;8.374;2023-05-10T04:07:23;13.70;99.90
37002;DHT22;22913;51.910;8.374;2023-05-10T04:10:09;13.70;99.90
37002;DHT22;22913;51.910;8.374;2023-05-10T04:12:56;13.70;99.90
37002;DHT22;22913;51.910;8.374;2023-05-10T04:15:41;13.60;99.90
37002;DHT22;22913;51.910;8.374;2023-05-10T04:18:27;13.50;99.90
37002;DHT22;22913;51.910;8.374;2023-05-10T04:21:14;13.50;99.90
37002;DHT22;22913;51.910;8.374;2023-05-10T04:24:00;13.40;99.90
37002;DHT22;22913;51.910;8.374;2023-05-10T04:26:45;13.40;99.90
37002;DHT22;22913;51.910;8.374;2023-05-10T04:29:31;13.30;99.90
37002;DHT22;22913;51.910;8.374;2023-05-10T04:32:16;13.30;99.90
37002;DHT22;22913;51.910;8.374;2023-05-10T04:35:03;13.40;99.90
37002;DHT22;22913;51.910;8.374;2023-05-10T04:37:50;13.30;99.90
37002;DHT22;22913;51.910;8.374;2023-05-10T04:40:35;13.40;99.90
37002;DHT22;22913;51.910;8.374;2023-05-10T04:43:21;13.40;99.90
37002;DHT22;22913;51.910;8.374;2023-05-10T04:46:07;13.30;99.90
37002;DHT22;22913;51.910;8.374;2023-05-10T04:48:52;13.30;99.90
37002;DHT22;22913;51.910;8.374;2023-05-10T04:51:38;13.30;99.90
37002;DHT22;22913;51.910;8.374;2023-05-10T04:54:25;13.30;99.90
37002;DHT22;22913;51.910;8.374;2023-05-10T04:57:10;13.40;99.90
37002;DHT22;22913;51.910;8.374;2023-05-10T04:59:56;13.40;99.90
37002;DHT22;22913;51.910;8.374;2023-05-10T05:02:42;13.30;99.90
37002;DHT22;22913;51.910;8.374;2023-05-10T05:05:29;13.30;99.90
37002;DHT22;22913;51.910;8.374;2023-05-10T05:08:15;13.30;99.90
37002;DHT22;22913;51.910;8.374;2023-05-10T05:11:02;13.30;99.90
37002;DHT22;22913;51.910;8.374;2023-05-10T05:13:47;13.40;99.90
37002;DHT22;22913;51.910;8.374;2023-05-10T05:16:33;13.50;99.90
37002;DHT22;22913;51.910;8.374;2023-05-10T05:19:19;13.40;99.90
37002;DHT22;22913;51.910;8.374;2023-05-10T05:22:06;13.40;99.90
37002;DHT22;22913;51.910;8.374;2023-05-10T05:24:52;13.40;99.90
37002;DHT22;22913;51.910;8.374;2023-05-10T05:27:39;13.40;99.90
37002;DHT22;22913;51.910;8.374;2023-05-10T05:30:24;13.30;99.90
37002;DHT22;22913;51.910;8.374;2023-05-10T05:33:10;13.20;99.90
37002;DHT22;22913;51.910;8.374;2023-05-10T05:35:55;13.20;99.90
37002;DHT22;22913;51.910;8.374;2023-05-10T05:38:41;13.20;99.90
37002;DHT22;22913;51.910;8.374;2023-05-10T05:41:27;13.30;99.90
37002;DHT22;22913;51.910;8.374;2023-05-10T05:44:14;13.30;99.90
37002;DHT22;22913;51.910;8.374;2023-05-10T05:46:59;13.30;99.90
37002;DHT22;22913;51.910;8.374;2023-05-10T05:49:45;13.20;99.90
37002;DHT22;22913;51.910;8.374;2023-05-10T05:52:30;13.20;99.90
37002;DHT22;22913;51.910;8.374;2023-05-10T05:55:16;13.20;99.90
37002;DHT22;22913;51.910;8.374;2023-05-10T05:58:02;13.20;99.90
37002;DHT22;22913;51.910;8.374;2023-05-10T06:00:49;13.30;99.90
37002;DHT22;22913;51.910;8.374;2023-05-10T06:03:36;13.40;99.90
37002;DHT22;22913;51.910;8.374;2023-05-10T06:06:21;13.40;99.90
37002;DHT22;22913;51.910;8.374;2023-05-10T06:09:07;13.30;99.90
37002;DHT22;22913;51.910;8.374;2023-05-10T06:11:52;13.30;99.90
37002;DHT22;22913;51.910;8.374;2023-05-10T06:14:38;13.40;99.90
37002;DHT22;22913;51.910;8.374;2023-05-10T06:17:25;13.40;99.90
37002;DHT22;22913;51.910;8.374;2023-05-10T06:20:12;13.40;99.90
37002;DHT22;22913;51.910;8.374;2023-05-10T06:22:58;13.50;99.90
37002;DHT22;22913;51.910;8.374;2023-05-10T06:25:43;13.50;99.90
37002;DHT22;22913;51.910;8.374;2023-05-10T06:28:29;13.50;99.90
37002;DHT22;22913;51.910;8.374;2023-05-10T06:31:15;13.60;99.90
37002;DHT22;22913;51.910;8.374;2023-05-10T06:34:03;13.70;99.90
37002;DHT22;22913;51.910;8.374;2023-05-10T06:36:48;13.70;99.90
37002;DHT22;22913;51.910;8.374;2023-05-10T06:39:34;13.60;99.90
37002;DHT22;22913;51.910;8.374;2023-05-10T06:42:20;13.70;99.90
37002;DHT22;22913;51.910;8.374;2023-05-10T06:45:06;13.70;99.90
37002;DHT22;22913;51.910;8.374;2023-05-10T06:47:52;13.80;99.90
37002;DHT22;22913;51.910;8.374;2023-05-10T06:50:39;13.80;99.90
37002;DHT22;22913;51.910;8.374;2023-05-10T06:53:25;13.80;99.90
37002;DHT22;22913;51.910;8.374;2023-05-10T06:56:10;13.90;99.90
37002;DHT22;22913;51.910;8.374;2023-05-10T06:58:56;13.90;99.90
37002;DHT22;22913;51.910;8.374;2023-05-10T07:01:42;14.00;99.90
37002;DHT22;22913;51.910;8.374;2023-05-10T07:04:27;14.00;99.90
37002;DHT22;22913;51.910;8.374;2023-05-10T07:07:15;14.00;99.90
37002;DHT22;22913;51.910;8.374;2023-05-10T07:10:00;14.00;99.90
37002;DHT22;22913;51.910;8.374;2023-05-10T07:12:46;14.10;99.90
37002;DHT22;22913;51.910;8.374;2023-05-10T07:15:32;14.10;99.90
37002;DHT22;22913;51.910;8.374;2023-05-10T07:18:17;14.20;99.90
37002;DHT22;22913;51.910;8.374;2023-05-10T07:21:03;14.20;99.90
37002;DHT22;22913;51.910;8.374;2023-05-10T07:23:50;14.30;99.90
37002;DHT22;22913;51.910;8.374;2023-05-10T07:26:36;14.20;99.90
37002;DHT22;22913;51.910;8.374;2023-05-10T07:29:22;14.30;99.90
37002;DHT22;22913;51.910;8.374;2023-05-10T07:32:07;14.30;99.90
37002;DHT22;22913;51.910;8.374;2023-05-10T07:34:53;14.40;99.90
37002;DHT22;22913;51.910;8.374;2023-05-10T07:37:39;14.60;99.90
37002;DHT22;22913;51.910;8.374;2023-05-10T07:40:27;14.60;99.90
37002;DHT22;22913;51.910;8.374;2023-05-10T07:43:13;14.60;99.90
37002;DHT22;22913;51.910;8.374;2023-05-10T07:45:58;14.60;99.90
37002;DHT22;22913;51.910;8.374;2023-05-10T07:48:44;14.50;99.90
37002;DHT22;22913;51.910;8.374;2023-05-10T07:51:30;14.50;99.90
37002;DHT22;22913;51.910;8.374;2023-05-10T07:54:15;14.50;99.90
37002;DHT22;22913;51.910;8.374;2023-05-10T07:57:03;14.70;99.90
37002;DHT22;22913;51.910;8.374;2023-05-10T07:59:49;14.70;99.90
37002;DHT22;22913;51.910;8.374;2023-05-10T08:02:35;14.80;99.90
37002;DHT22;22913;51.910;8.374;2023-05-10T08:05:20;15.00;99.90
37002;DHT22;22913;51.910;8.374;2023-05-10T08:08:06;15.10;99.90
37002;DHT22;22913;51.910;8.374;2023-05-10T08:10:52;15.10;99.90
37002;DHT22;22913;51.910;8.374;2023-05-10T08:13:39;15.20;99.90
37002;DHT22;22913;51.910;8.374;2023-05-10T08:16:25;15.30;99.90
37002;DHT22;22913;51.910;8.374;2023-05-10T08:19:10;15.10;99.90
37002;DHT22;22913;51.910;8.374;2023-05-10T08:21:56;15.00;99.90
37002;DHT22;22913;51.910;8.374;2023-05-10T08:24:41;15.00;99.90
37002;DHT22;22913;51.910;8.374;2023-05-10T08:27:27;15.00;99.90
37002;DHT22;22913;51.910;8.374;2023-05-10T08:30:14;14.90;99.90
37002;DHT22;22913;51.910;8.374;2023-05-10T08:33:01;14.90;99.90
37002;DHT22;22913;51.910;8.374;2023-05-10T08:35:47;14.90;99.90
37002;DHT22;22913;51.910;8.374;2023-05-10T08:38:33;14.90;99.90
37002;DHT22;22913;51.910;8.374;2023-05-10T08:41:20;14.90;99.90
37002;DHT22;22913;51.910;8.374;2023-05-10T08:44:07;14.80;99.90
37002;DHT22;22913;51.910;8.374;2023-05-10T08:46:55;14.90;99.90
37002;DHT22;22913;51.910;8.374;2023-05-10T08:49:41;14.90;99.90
37002;DHT22;22913;51.910;8.374;2023-05-10T08:52:29;15.00;99.90
37002;DHT22;22913;51.910;8.374;2023-05-10T08:55:15;15.00;99.90
37002;DHT22;22913;51.910;8.374;2023-05-10T08:58:02;15.10;99.90
37002;DHT22;22913;51.910;8.374;2023-05-10T09:00:49;15.20;99.90
37002;DHT22;22913;51.910;8.374;2023-05-10T09:03:38;15.20;99.90
37002;DHT22;22913;51.910;8.374;2023-05-10T09:06:24;15.30;99.90
37002;DHT22;22913;51.910;8.374;2023-05-10T09:09:10;15.50;99.90
37002;DHT22;22913;51.910;8.374;2023-05-10T09:11:55;15.60;99.90
37002;DHT22;22913;51.910;8.374;2023-05-10T09:14:42;15.70;99.90
37002;DHT22;22913;51.910;8.374;2023-05-10T09:17:30;15.80;99.90
37002;DHT22;22913;51.910;8.374;2023-05-10T09:20:17;15.80;99.90
37002;DHT22;22913;51.910;8.374;2023-05-10T09:23:02;15.90;99.90
37002;DHT22;22913;51.910;8.374;2023-05-10T09:25:48;16.00;99.90
37002;DHT22;22913;51.910;8.374;2023-05-10T09:28:51;16.00;99.90
37002;DHT22;22913;51.910;8.374;2023-05-10T09:31:44;16.30;99.90
37002;DHT22;22913;51.910;8.374;2023-05-10T09:34:31;16.60;99.90
37002;DHT22;22913;51.910;8.374;2023-05-10T09:37:18;16.80;99.90
37002;DHT22;22913;51.910;8.374;2023-05-10T09:40:08;16.90;99.90
37002;DHT22;22913;51.910;8.374;2023-05-10T09:42:57;16.90;99.90
37002;DHT22;22913;51.910;8.374;2023-05-10T09:45:43;16.90;99.90
37002;DHT22;22913;51.910;8.374;2023-05-10T09:48:29;17.10;99.90
37002;DHT22;22913;51.910;8.374;2023-05-10T09:51:21;17.20;99.90
37002;DHT22;22913;51.910;8.374;2023-05-10T09:54:12;17.40;99.90
37002;DHT22;22913;51.910;8.374;2023-05-10T09:56:59;17.60;99.90
37002;DHT22;22913;51.910;8.374;2023-05-10T09:59:44;17.90;99.90
37002;DHT22;22913;51.910;8.374;2023-05-10T10:02:31;18.00;99.90
37002;DHT22;22913;51.910;8.374;2023-05-10T10:05:17;18.20;99.90
37002;DHT22;22913;51.910;8.374;2023-05-10T10:08:04;18.20;99.90
37002;DHT22;22913;51.910;8.374;2023-05-10T10:10:51;18.40;99.90
37002;DHT22;22913;51.910;8.374;2023-05-10T10:13:37;18.40;99.90
37002;DHT22;22913;51.910;8.374;2023-05-10T10:16:23;18.30;99.90
37002;DHT22;22913;51.910;8.374;2023-05-10T10:19:10;18.40;99.90
37002;DHT22;22913;51.910;8.374;2023-05-10T10:21:55;18.50;99.90
37002;DHT22;22913;51.910;8.374;2023-05-10T10:24:41;18.50;99.90
37002;DHT22;22913;51.910;8.374;2023-05-10T10:27:36;18.40;99.90
37002;DHT22;22913;51.910;8.374;2023-05-10T10:30:30;18.40;99.90
37002;DHT22;22913;51.910;8.374;2023-05-10T10:33:39;18.40;99.90
37002;DHT22;22913;51.910;8.374;2023-05-10T10:36:25;18.70;99.90
37002;DHT22;22913;51.910;8.374;2023-05-10T10:39:12;18.90;99.90
37002;DHT22;22913;51.910;8.374;2023-05-10T10:41:59;19.00;99.90
37002;DHT22;22913;51.910;8.374;2023-05-10T10:44:47;19.20;99.90
37002;DHT22;22913;51.910;8.374;2023-05-10T10:47:33;19.30;99.90
37002;DHT22;22913;51.910;8.374;2023-05-10T10:50:21;19.20;99.90
37002;DHT22;22913;51.910;8.374;2023-05-10T10:53:10;19.20;99.90
37002;DHT22;22913;51.910;8.374;2023-05-10T10:56:07;19.30;99.90
37002;DHT22;22913;51.910;8.374;2023-05-10T10:58:59;19.40;99.90
37002;DHT22;22913;51.910;8.374;2023-05-10T11:01:51;19.30;99.90
37002;DHT22;22913;51.910;8.374;2023-05-10T11:04:43;19.20;99.90
37002;DHT22;22913;51.910;8.374;2023-05-10T11:07:31;19.10;99.90
37002;DHT22;22913;51.910;8.374;2023-05-10T11:10:19;19.10;99.90
37002;DHT22;22913;51.910;8.374;2023-05-10T11:13:06;19.00;99.90
37002;DHT22;22913;51.910;8.374;2023-05-10T11:15:52;18.90;99.90
37002;DHT22;22913;51.910;8.374;2023-05-10T11:18:40;18.60;99.90
37002;DHT22;22913;51.910;8.374;2023-05-10T11:21:26;18.40;99.90
37002;DHT22;22913;51.910;8.374;2023-05-10T11:24:13;18.30;99.90
37002;DHT22;22913;51.910;8.374;2023-05-10T11:27:00;18.30;99.90
37002;DHT22;22913;51.910;8.374;2023-05-10T11:29:45;18.60;99.90
37002;DHT22;22913;51.910;8.374;2023-05-10T11:32:31;18.70;99.90
37002;DHT22;22913;51.910;8.374;2023-05-10T11:35:18;18.70;99.90
37002;DHT22;22913;51.910;8.374;2023-05-10T11:38:06;18.50;99.90
37002;DHT22;22913;51.910;8.374;2023-05-10T11:40:52;18.40;99.90
37002;DHT22;22913;51.910;8.374;2023-05-10T11:43:38;18.10;99.90
37002;DHT22;22913;51.910;8.374;2023-05-10T11:46:25;17.80;99.90
37002;DHT22;22913;51.910;8.374;2023-05-10T11:49:12;17.30;99.90
37002;DHT22;22913;51.910;8.374;2023-05-10T11:52:05;16.90;99.90
37002;DHT22;22913;51.910;8.374;2023-05-10T11:54:52;16.90;99.90
37002;DHT22;22913;51.910;8.374;2023-05-10T11:57:37;16.90;99.90
37002;DHT22;22913;51.910;8.374;2023-05-10T12:00:26;16.90;99.90
37002;DHT22;22913;51.910;8.374;2023-05-10T12:03:11;16.90;99.90
37002;DHT22;22913;51.910;8.374;2023-05-10T12:05:57;16.90;99.90
37002;DHT22;22913;51.910;8.374;2023-05-10T12:08:46;16.90;99.90
37002;DHT22;22913;51.910;8.374;2023-05-10T12:11:31;16.80;99.90
37002;DHT22;22913;51.910;8.374;2023-05-10T12:14:17;16.80;99.90
37002;DHT22;22913;51.910;8.374;2023-05-10T12:17:05;16.80;99.90
37002;DHT22;22913;51.910;8.374;2023-05-10T12:19:51;16.90;99.90
37002;DHT22;22913;51.910;8.374;2023-05-10T12:22:37;16.90;99.90
37002;DHT22;22913;51.910;8.374;2023-05-10T12:25:29;16.90;99.90
37002;DHT22;22913;51.910;8.374;2023-05-10T12:28:15;16.90;99.90
37002;DHT22;22913;51.910;8.374;2023-05-10T12:31:05;16.80;99.90
37002;DHT22;22913;51.910;8.374;2023-05-10T12:33:51;17.00;99.90
37002;DHT22;22913;51.910;8.374;2023-05-10T12:36:38;17.20;99.90
37002;DHT22;22913;51.910;8.374;2023-05-10T12:39:24;17.40;99.90
37002;DHT22;22913;51.910;8.374;2023-05-10T12:42:11;17.80;99.90
37002;DHT22;22913;51.910;8.374;2023-05-10T12:44:57;18.10;99.90
37002;DHT22;22913;51.910;8.374;2023-05-10T12:47:42;18.20;99.90
37002;DHT22;22913;51.910;8.374;2023-05-10T12:50:28;18.30;99.90
37002;DHT22;22913;51.910;8.374;2023-05-10T12:53:14;18.50;99.90
37002;DHT22;22913;51.910;8.374;2023-05-10T12:56:00;18.50;99.90
37002;DHT22;22913;51.910;8.374;2023-05-10T12:58:47;18.30;99.90
37002;DHT22;22913;51.910;8.374;2023-05-10T13:01:33;18.10;99.90
37002;DHT22;22913;51.910;8.374;2023-05-10T13:04:18;18.00;99.90
37002;DHT22;22913;51.910;8.374;2023-05-10T13:07:04;17.90;99.90
37002;DHT22;22913;51.910;8.374;2023-05-10T13:09:50;17.90;99.90
37002;DHT22;22913;51.910;8.374;2023-05-10T13:12:35;17.80;99.90
37002;DHT22;22913;51.910;8.374;2023-05-10T13:15:22;17.80;99.90
37002;DHT22;22913;51.910;8.374;2023-05-10T13:18:08;17.70;99.90
37002;DHT22;22913;51.910;8.374;2023-05-10T13:20:54;17.50;99.90
37002;DHT22;22913;51.910;8.374;2023-05-10T13:23:40;17.40;99.90
37002;DHT22;22913;51.910;8.374;2023-05-10T13:26:25;17.20;99.90
37002;DHT22;22913;51.910;8.374;2023-05-10T13:29:11;17.00;99.90
37002;DHT22;22913;51.910;8.374;2023-05-10T13:31:58;16.60;99.90
37002;DHT22;22913;51.910;8.374;2023-05-10T13:34:44;16.50;99.90
37002;DHT22;22913;51.910;8.374;2023-05-10T13:37:30;16.70;99.90
37002;DHT22;22913;51.910;8.374;2023-05-10T13:40:16;16.80;99.90
37002;DHT22;22913;51.910;8.374;2023-05-10T13:43:01;17.00;99.90
37002;DHT22;22913;51.910;8.374;2023-05-10T13:45:47;17.30;99.90
37002;DHT22;22913;51.910;8.374;2023-05-10T13:48:34;17.60;99.90
37002;DHT22;22913;51.910;8.374;2023-05-10T13:51:20;18.10;99.90
37002;DHT22;22913;51.910;8.374;2023-05-10T13:54:06;18.40;99.90
37002;DHT22;22913;51.910;8.374;2023-05-10T13:56:52;18.60;99.90
37002;DHT22;22913;51.910;8.374;2023-05-10T13:59:37;18.80;99.90
37002;DHT22;22913;51.910;8.374;2023-05-10T14:02:23;19.00;99.90
37002;DHT22;22913;51.910;8.374;2023-05-10T14:05:11;19.20;99.90
37002;DHT22;22913;51.910;8.374;2023-05-10T14:07:56;19.40;99.90
37002;DHT22;22913;51.910;8.374;2023-05-10T14:10:42;19.60;99.90
37002;DHT22;22913;51.910;8.374;2023-05-10T14:13:28;19.80;99.90
37002;DHT22;22913;51.910;8.374;2023-05-10T14:16:14;19.90;99.90
37002;DHT22;22913;51.910;8.374;2023-05-10T14:18:59;19.90;99.90
37002;DHT22;22913;51.910;8.374;2023-05-10T14:21:47;19.80;99.90
37002;DHT22;22913;51.910;8.374;2023-05-10T14:24:33;19.70;99.90
37002;DHT22;22913;51.910;8.374;2023-05-10T14:27:19;19.80;99.90
37002;DHT22;22913;51.910;8.374;2023-05-10T14:30:06;19.90;99.90
37002;DHT22;22913;51.910;8.374;2023-05-10T14:32:51;20.10;99.90
37002;DHT22;22913;51.910;8.374;2023-05-10T14:35:38;20.40;99.90
37002;DHT22;22913;51.910;8.374;2023-05-10T14:38:25;20.70;99.90
37002;DHT22;22913;51.910;8.374;2023-05-10T14:41:10;21.00;99.90
37002;DHT22;22913;51.910;8.374;2023-05-10T14:43:58;21.00;99.90
37002;DHT22;22913;51.910;8.374;2023-05-10T14:46:44;21.50;99.90
37002;DHT22;22913;51.910;8.374;2023-05-10T14:49:29;22.00;99.90
37002;DHT22;22913;51.910;8.374;2023-05-10T14:52:15;22.40;99.90
37002;DHT22;22913;51.910;8.374;2023-05-10T14:55:03;22.50;99.90
37002;DHT22;22913;51.910;8.374;2023-05-10T14:57:49;22.50;99.90
37002;DHT22;22913;51.910;8.374;2023-05-10T15:00:35;22.60;99.90
37002;DHT22;22913;51.910;8.374;2023-05-10T15:03:20;22.50;99.90
37002;DHT22;22913;51.910;8.374;2023-05-10T15:06:07;22.30;99.90
37002;DHT22;22913;51.910;8.374;2023-05-10T15:08:53;22.40;99.90
37002;DHT22;22913;51.910;8.374;2023-05-10T15:11:40;22.40;99.90
37002;DHT22;22913;51.910;8.374;2023-05-10T15:14:25;22.40;99.90
37002;DHT22;22913;51.910;8.374;2023-05-10T15:17:11;22.50;99.90
37002;DHT22;22913;51.910;8.374;2023-05-10T15:19:57;22.50;99.90
37002;DHT22;22913;51.910;8.374;2023-05-10T15:22:43;22.30;99.90
37002;DHT22;22913;51.910;8.374;2023-05-10T15:25:28;21.90;99.90
37002;DHT22;22913;51.910;8.374;2023-05-10T15:28:15;21.60;99.90
37002;DHT22;22913;51.910;8.374;2023-05-10T15:31:01;21.40;99.90
37002;DHT22;22913;51.910;8.374;2023-05-10T15:33:46;20.80;99.90
37002;DHT22;22913;51.910;8.374;2023-05-10T15:36:32;20.50;99.90
37002;DHT22;22913;51.910;8.374;2023-05-10T15:39:18;20.10;99.90
37002;DHT22;22913;51.910;8.374;2023-05-10T15:42:04;19.80;99.90
37002;DHT22;22913;51.910;8.374;2023-05-10T15:44:51;19.60;99.90
37002;DHT22;22913;51.910;8.374;2023-05-10T15:47:36;19.30;99.90
37002;DHT22;22913;51.910;8.374;2023-05-10T15:50:23;19.10;99.90
37002;DHT22;22913;51.910;8.374;2023-05-10T15:53:09;18.80;99.90
37002;DHT22;22913;51.910;8.374;2023-05-10T15:55:54;18.70;99.90
37002;DHT22;22913;51.910;8.374;2023-05-10T15:58:40;18.60;99.90
37002;DHT22;22913;51.910;8.374;2023-05-10T16:01:28;18.50;99.90
37002;DHT22;22913;51.910;8.374;2023-05-10T16:04:14;18.40;99.90
37002;DHT22;22913;51.910;8.374;2023-05-10T16:07:00;18.30;99.90
37002;DHT22;22913;51.910;8.374;2023-05-10T16:09:45;18.30;99.90
37002;DHT22;22913;51.910;8.374;2023-05-10T16:12:32;18.20;99.90
37002;DHT22;22913;51.910;8.374;2023-05-10T16:15:18;18.10;99.90
37002;DHT22;22913;51.910;8.374;2023-05-10T16:18:06;17.90;99.90
37002;DHT22;22913;51.910;8.374;2023-05-10T16:20:52;17.80;99.90
37002;DHT22;22913;51.910;8.374;2023-05-10T16:23:38;17.60;99.90
37002;DHT22;22913;51.910;8.374;2023-05-10T16:26:24;17.50;99.90
37002;DHT22;22913;51.910;8.374;2023-05-10T16:29:09;17.30;99.90
37002;DHT22;22913;51.910;8.374;2023-05-10T16:31:55;17.20;99.90
37002;DHT22;22913;51.910;8.374;2023-05-10T16:34:42;17.20;99.90
37002;DHT22;22913;51.910;8.374;2023-05-10T16:37:27;17.10;99.90
37002;DHT22;22913;51.910;8.374;2023-05-10T16:40:13;16.90;99.90
37002;DHT22;22913;51.910;8.374;2023-05-10T16:42:59;16.90;99.90
37002;DHT22;22913;51.910;8.374;2023-05-10T16:45:44;16.80;99.90
37002;DHT22;22913;51.910;8.374;2023-05-10T16:48:30;16.70;99.90
37002;DHT22;22913;51.910;8.374;2023-05-10T16:51:17;16.60;99.90
37002;DHT22;22913;51.910;8.374;2023-05-10T16:54:03;16.60;99.90
37002;DHT22;22913;51.910;8.374;2023-05-10T16:56:48;16.60;99.90
37002;DHT22;22913;51.910;8.374;2023-05-10T16:59:34;16.60;99.90
37002;DHT22;22913;51.910;8.374;2023-05-10T17:02:19;16.40;99.90
37002;DHT22;22913;51.910;8.374;2023-05-10T17:05:06;16.30;99.90
37002;DHT22;22913;51.910;8.374;2023-05-10T17:07:53;16.40;99.90
37002;DHT22;22913;51.910;8.374;2023-05-10T17:10:39;16.30;99.90
37002;DHT22;22913;51.910;8.374;2023-05-10T17:13:25;16.30;99.90
37002;DHT22;22913;51.910;8.374;2023-05-10T17:16:10;16.30;99.90
37002;DHT22;22913;51.910;8.374;2023-05-10T17:18:56;16.20;99.90
37002;DHT22;22913;51.910;8.374;2023-05-10T17:21:42;16.10;99.90
37002;DHT22;22913;51.910;8.374;2023-05-10T17:24:29;16.00;99.90
37002;DHT22;22913;51.910;8.374;2023-05-10T17:27:14;16.00;99.90
37002;DHT22;22913;51.910;8.374;2023-05-10T17:30:00;15.90;99.90
37002;DHT22;22913;51.910;8.374;2023-05-10T17:32:45;15.80;99.90
37002;DHT22;22913;51.910;8.374;2023-05-10T17:35:31;15.70;99.90